sensor_id;sensor_type;location;lat;lon;timestamp;temperature;humidity
4187;DHT22;2107;52.306;10.484;2023-05-16T00:01:08;9.50;99.90
4187;DHT22;2107;52.306;10.484;2023-05-16T00:03:35;9.50;99.90
4187;DHT22;2107;52.306;10.484;2023-05-16T00:06:03;9.60;99.90
4187;DHT22;2107;52.306;10.484;2023-05-16T00:08:31;9.60;99.90
4187;DHT22;2107;52.306;10.484;2023-05-16T00:10:58;9.60;99.90
4187;DHT22;2107;52.306;10.484;2023-05-16T00:13:26;9.70;99.90
4187;DHT22;2107;52.306;10.484;2023-05-16T00:15:53;9.80;99.90
4187;DHT22;2107;52.306;10.484;2023-05-16T00:18:21;9.70;99.90
4187;DHT22;2107;52.306;10.484;2023-05-16T00:20:48;9.80;99.90
4187;DHT22;2107;52.306;10.484;2023-05-16T00:23:15;9.80;99.90
4187;DHT22;2107;52.306;10.484;2023-05-16T00:25:43;9.90;99.90
4187;DHT22;2107;52.306;10.484;2023-05-16T00:28:11;9.90;99.90
4187;DHT22;2107;52.306;10.484;2023-05-16T00:30:38;9.90;99.90
4187;DHT22;2107;52.306;10.484;2023-05-16T00:33:05;10.00;99.90
4187;DHT22;2107;52.306;10.484;2023-05-16T00:35:32;9.90;99.90
4187;DHT22;2107;52.306;10.484;2023-05-16T00:37:58;9.90;99.90
4187;DHT22;2107;52.306;10.484;2023-05-16T00:40:25;9.90;99.90
4187;DHT22;2107;52.306;10.484;2023-05-16T00:42:53;9.90;99.90
4187;DHT22;2107;52.306;10.484;2023-05-16T00:45:20;9.90;99.90
4187;DHT22;2107;52.306;10.484;2023-05-16T00:47:47;9.80;99.90
4187;DHT22;2107;52.306;10.484;2023-05-16T00:50:15;9.90;99.90
4187;DHT22;2107;52.306;10.484;2023-05-16T00:52:42;9.90;99.90
4187;DHT22;2107;52.306;10.484;2023-05-16T00:55:09;9.90;99.90
4187;DHT22;2107;52.306;10.484;2023-05-16T00:57:36;9.90;99.90
4187;DHT22;2107;52.306;10.484;2023-05-16T01:00:06;9.90;99.90
4187;DHT22;2107;52.306;10.484;2023-05-16T01:02:33;9.90;99.90
4187;DHT22;2107;52.306;10.484;2023-05-16T01:05:01;9.90;99.90
4187;DHT22;2107;52.306;10.484;2023-05-16T01:07:29;10.00;99.90
4187;DHT22;2107;52.306;10.484;2023-05-16T01:09:57;10.00;99.90
4187;DHT22;2107;52.306;10.484;2023-05-16T01:12:30;9.90;99.90
4187;DHT22;2107;52.306;10.484;2023-05-16T01:15:08;9.90;99.90
4187;DHT22;2107;52.306;10.484;2023-05-16T01:17:44;9.90;99.90
4187;DHT22;2107;52.306;10.484;2023-05-16T01:20:23;10.00;99.90
4187;DHT22;2107;52.306;10.484;2023-05-16T01:23:03;10.00;99.90
4187;DHT22;2107;52.306;10.484;2023-05-16T01:25:50;10.00;99.90
4187;DHT22;2107;52.306;10.484;2023-05-16T01:28:23;10.00;99.90
4187;DHT22;2107;52.306;10.484;2023-05-16T01:30:51;10.00;99.90
4187;DHT22;2107;52.306;10.484;2023-05-16T01:33:17;10.10;99.90
4187;DHT22;2107;52.306;10.484;2023-05-16T01:35:52;10.00;99.90
4187;DHT22;2107;52.306;10.484;2023-05-16T01:38:24;10.00;99.90
4187;DHT22;2107;52.306;10.484;2023-05-16T01:40:54;10.00;99.90
4187;DHT22;2107;52.306;10.484;2023-05-16T01:43:29;10.00;99.90
4187;DHT22;2107;52.306;10.484;2023-05-16T01:46:02;10.00;99.90
4187;DHT22;2107;52.306;10.484;2023-05-16T01:48:34;9.90;99.90
4187;DHT22;2107;52.306;10.484;2023-05-16T01:51:05;9.90;99.90
4187;DHT22;2107;52.306;10.484;2023-05-16T01:53:36;9.90;99.90
4187;DHT22;2107;52.306;10.484;2023-05-16T01:56:08;9.90;99.90
4187;DHT22;2107;52.306;10.484;2023-05-16T01:58:38;9.90;99.90
4187;DHT22;2107;52.306;10.484;2023-05-16T02:01:05;9.90;99.90
4187;DHT22;2107;52.306;10.484;2023-05-16T02:03:32;9.90;99.90
4187;DHT22;2107;52.306;10.484;2023-05-16T02:05:59;9.90;99.90
4187;DHT22;2107;52.306;10.484;2023-05-16T02:08:27;9.90;99.90
4187;DHT22;2107;52.306;10.484;2023-05-16T02:10:54;9.90;99.90
4187;DHT22;2107;52.306;10.484;2023-05-16T02:13:21;9.90;99.90
4187;DHT22;2107;52.306;10.484;2023-05-16T02:15:49;9.90;99.90
4187;DHT22;2107;52.306;10.484;2023-05-16T02:18:17;9.90;99.90
4187;DHT22;2107;52.306;10.484;2023-05-16T02:20:44;10.00;99.90
4187;DHT22;2107;52.306;10.484;2023-05-16T02:23:11;10.00;99.90
4187;DHT22;2107;52.306;10.484;2023-05-16T02:25:37;10.00;99.90
4187;DHT22;2107;52.306;10.484;2023-05-16T02:28:04;10.00;99.90
4187;DHT22;2107;52.306;10.484;2023-05-16T02:30:31;10.00;99.90
4187;DHT22;2107;52.306;10.484;2023-05-16T02:32:59;10.00;99.90
4187;DHT22;2107;52.306;10.484;2023-05-16T02:35:26;10.00;99.90
4187;DHT22;2107;52.306;10.484;2023-05-16T02:37:53;9.90;99.90
4187;DHT22;2107;52.306;10.484;2023-05-16T02:40:21;10.00;99.90
4187;DHT22;2107;52.306;10.484;2023-05-16T02:42:47;10.00;99.90
4187;DHT22;2107;52.306;10.484;2023-05-16T02:45:14;10.00;99.90
4187;DHT22;2107;52.306;10.484;2023-05-16T02:47:41;10.00;99.90
4187;DHT22;2107;52.306;10.484;2023-05-16T02:50:10;10.00;99.90
4187;DHT22;2107;52.306;10.484;2023-05-16T02:52:36;10.00;99.90
4187;DHT22;2107;52.306;10.484;2023-05-16T02:55:04;10.00;99.90
4187;DHT22;2107;52.306;10.484;2023-05-16T02:57:32;10.00;99.90
4187;DHT22;2107;52.306;10.484;2023-05-16T02:59:59;10.10;99.90
4187;DHT22;2107;52.306;10.484;2023-05-16T03:02:25;10.10;99.90
4187;DHT22;2107;52.306;10.484;2023-05-16T03:04:52;10.00;99.90
4187;DHT22;2107;52.306;10.484;2023-05-16T03:07:20;10.00;99.90
4187;DHT22;2107;52.306;10.484;2023-05-16T03:09:47;10.00;99.90
4187;DHT22;2107;52.306;10.484;2023-05-16T03:12:14;10.00;99.90
4187;DHT22;2107;52.306;10.484;2023-05-16T03:14:41;10.00;99.90
4187;DHT22;2107;52.306;10.484;2023-05-16T03:17:08;10.10;99.90
4187;DHT22;2107;52.306;10.484;2023-05-16T03:19:34;10.10;99.90
4187;DHT22;2107;52.306;10.484;2023-05-16T03:22:01;10.10;99.90
4187;DHT22;2107;52.306;10.484;2023-05-16T03:24:30;10.10;99.90
4187;DHT22;2107;52.306;10.484;2023-05-16T03:26:56;10.10;99.90
4187;DHT22;2107;52.306;10.484;2023-05-16T03:29:24;10.10;99.90
4187;DHT22;2107;52.306;10.484;2023-05-16T03:31:51;10.20;99.90
4187;DHT22;2107;52.306;10.484;2023-05-16T03:34:18;10.20;99.90
4187;DHT22;2107;52.306;10.484;2023-05-16T03:36:47;10.10;99.90
4187;DHT22;2107;52.306;10.484;2023-05-16T03:39:15;10.10;99.90
4187;DHT22;2107;52.306;10.484;2023-05-16T03:41:43;10.20;99.90
4187;DHT22;2107;52.306;10.484;2023-05-16T03:44:10;10.20;99.90
4187;DHT22;2107;52.306;10.484;2023-05-16T03:46:36;10.10;99.90
4187;DHT22;2107;52.306;10.484;2023-05-16T03:49:03;10.00;99.90
4187;DHT22;2107;52.306;10.484;2023-05-16T03:51:30;10.00;99.90
4187;DHT22;2107;52.306;10.484;2023-05-16T03:53:57;10.00;99.90
4187;DHT22;2107;52.306;10.484;2023-05-16T03:56:24;10.00;99.90
4187;DHT22;2107;52.306;10.484;2023-05-16T03:58:53;10.00;99.90
4187;DHT22;2107;52.306;10.484;2023-05-16T04:01:19;9.90;99.90
4187;DHT22;2107;52.306;10.484;2023-05-16T04:03:47;9.90;99.90
4187;DHT22;2107;52.306;10.484;2023-05-16T04:06:15;9.90;99.90
4187;DHT22;2107;52.306;10.484;2023-05-16T04:08:42;9.80;99.90
4187;DHT22;2107;52.306;10.484;2023-05-16T04:11:09;9.60;99.90
4187;DHT22;2107;52.306;10.484;2023-05-16T04:13:36;9.50;99.90
4187;DHT22;2107;52.306;10.484;2023-05-16T04:16:05;9.50;99.90
4187;DHT22;2107;52.306;10.484;2023-05-16T04:18:32;9.50;99.90
4187;DHT22;2107;52.306;10.484;2023-05-16T04:20:59;9.50;99.90
4187;DHT22;2107;52.306;10.484;2023-05-16T04:23:26;9.50;99.90
4187;DHT22;2107;52.306;10.484;2023-05-16T04:25:52;9.30;99.90
4187;DHT22;2107;52.306;10.484;2023-05-16T04:28:19;9.30;99.90
4187;DHT22;2107;52.306;10.484;2023-05-16T04:30:46;9.40;99.90
4187;DHT22;2107;52.306;10.484;2023-05-16T04:33:15;9.30;99.90
4187;DHT22;2107;52.306;10.484;2023-05-16T04:35:42;9.30;99.90
4187;DHT22;2107;52.306;10.484;2023-05-16T04:38:09;9.30;99.90
4187;DHT22;2107;52.306;10.484;2023-05-16T04:40:36;9.30;99.90
4187;DHT22;2107;52.306;10.484;2023-05-16T04:43:03;9.40;99.90
4187;DHT22;2107;52.306;10.484;2023-05-16T04:45:31;9.40;99.90
4187;DHT22;2107;52.306;10.484;2023-05-16T04:47:58;9.50;99.90
4187;DHT22;2107;52.306;10.484;2023-05-16T04:50:26;9.60;99.90
4187;DHT22;2107;52.306;10.484;2023-05-16T04:52:53;9.50;99.90
4187;DHT22;2107;52.306;10.484;2023-05-16T04:55:20;9.60;99.90
4187;DHT22;2107;52.306;10.484;2023-05-16T04:57:46;9.70;99.90
4187;DHT22;2107;52.306;10.484;2023-05-16T05:00:14;9.70;99.90
4187;DHT22;2107;52.306;10.484;2023-05-16T05:02:42;9.60;99.90
4187;DHT22;2107;52.306;10.484;2023-05-16T05:05:09;9.90;99.90
4187;DHT22;2107;52.306;10.484;2023-05-16T05:07:37;9.80;99.90
4187;DHT22;2107;52.306;10.484;2023-05-16T05:10:05;10.00;99.90
4187;DHT22;2107;52.306;10.484;2023-05-16T05:12:34;10.20;99.90
4187;DHT22;2107;52.306;10.484;2023-05-16T05:15:01;10.30;99.90
4187;DHT22;2107;52.306;10.484;2023-05-16T05:17:28;10.40;99.90
4187;DHT22;2107;52.306;10.484;2023-05-16T05:19:55;10.50;99.90
4187;DHT22;2107;52.306;10.484;2023-05-16T05:22:22;10.70;99.90
4187;DHT22;2107;52.306;10.484;2023-05-16T05:24:50;10.90;99.90
4187;DHT22;2107;52.306;10.484;2023-05-16T05:27:17;11.00;99.90
4187;DHT22;2107;52.306;10.484;2023-05-16T05:29:44;11.10;99.90
4187;DHT22;2107;52.306;10.484;2023-05-16T05:32:11;11.00;99.90
4187;DHT22;2107;52.306;10.484;2023-05-16T05:34:38;11.00;99.90
4187;DHT22;2107;52.306;10.484;2023-05-16T05:37:05;11.00;99.90
4187;DHT22;2107;52.306;10.484;2023-05-16T05:39:32;10.90;99.90
4187;DHT22;2107;52.306;10.484;2023-05-16T05:42:00;10.80;99.90
4187;DHT22;2107;52.306;10.484;2023-05-16T05:44:28;10.50;99.90
4187;DHT22;2107;52.306;10.484;2023-05-16T05:46:55;10.10;99.90
4187;DHT22;2107;52.306;10.484;2023-05-16T05:49:23;9.90;99.90
4187;DHT22;2107;52.306;10.484;2023-05-16T05:51:49;9.80;99.90
4187;DHT22;2107;52.306;10.484;2023-05-16T05:54:17;9.60;99.90
4187;DHT22;2107;52.306;10.484;2023-05-16T05:56:44;9.50;99.90
4187;DHT22;2107;52.306;10.484;2023-05-16T05:59:12;9.30;99.90
4187;DHT22;2107;52.306;10.484;2023-05-16T06:01:39;9.20;99.90
4187;DHT22;2107;52.306;10.484;2023-05-16T06:04:07;9.10;99.90
4187;DHT22;2107;52.306;10.484;2023-05-16T06:06:34;9.10;99.90
4187;DHT22;2107;52.306;10.484;2023-05-16T06:09:01;9.20;99.90
4187;DHT22;2107;52.306;10.484;2023-05-16T06:11:27;9.20;99.90
4187;DHT22;2107;52.306;10.484;2023-05-16T06:13:54;9.30;99.90
4187;DHT22;2107;52.306;10.484;2023-05-16T06:16:24;9.40;99.90
4187;DHT22;2107;52.306;10.484;2023-05-16T06:18:51;9.60;99.90
4187;DHT22;2107;52.306;10.484;2023-05-16T06:21:18;9.80;99.90
4187;DHT22;2107;52.306;10.484;2023-05-16T06:23:45;10.00;99.90
4187;DHT22;2107;52.306;10.484;2023-05-16T06:26:12;10.20;99.90
4187;DHT22;2107;52.306;10.484;2023-05-16T06:28:39;10.30;99.90
4187;DHT22;2107;52.306;10.484;2023-05-16T06:31:06;10.30;99.90
4187;DHT22;2107;52.306;10.484;2023-05-16T06:33:34;10.30;99.90
4187;DHT22;2107;52.306;10.484;2023-05-16T06:36:01;10.40;99.90
4187;DHT22;2107;52.306;10.484;2023-05-16T06:38:28;10.40;99.90
4187;DHT22;2107;52.306;10.484;2023-05-16T06:40:54;10.50;99.90
4187;DHT22;2107;52.306;10.484;2023-05-16T06:43:21;10.50;99.90
4187;DHT22;2107;52.306;10.484;2023-05-16T06:45:48;10.80;99.90
4187;DHT22;2107;52.306;10.484;2023-05-16T06:48:17;11.00;99.90
4187;DHT22;2107;52.306;10.484;2023-05-16T06:50:47;11.20;99.90
4187;DHT22;2107;52.306;10.484;2023-05-16T06:53:15;11.30;99.90
4187;DHT22;2107;52.306;10.484;2023-05-16T06:55:42;11.60;99.90
4187;DHT22;2107;52.306;10.484;2023-05-16T06:58:09;11.70;99.90
4187;DHT22;2107;52.306;10.484;2023-05-16T07:00:36;11.70;99.90
4187;DHT22;2107;52.306;10.484;2023-05-16T07:03:03;11.70;99.90
4187;DHT22;2107;52.306;10.484;2023-05-16T07:05:30;11.50;99.90
4187;DHT22;2107;52.306;10.484;2023-05-16T07:07:58;11.60;99.90
4187;DHT22;2107;52.306;10.484;2023-05-16T07:10:25;12.10;99.90
4187;DHT22;2107;52.306;10.484;2023-05-16T07:12:52;12.40;99.90
4187;DHT22;2107;52.306;10.484;2023-05-16T07:15:20;12.50;99.90
4187;DHT22;2107;52.306;10.484;2023-05-16T07:17:46;12.50;99.90
4187;DHT22;2107;52.306;10.484;2023-05-16T07:20:15;12.40;99.90
4187;DHT22;2107;52.306;10.484;2023-05-16T07:22:42;12.50;99.90
4187;DHT22;2107;52.306;10.484;2023-05-16T07:25:10;12.40;99.90
4187;DHT22;2107;52.306;10.484;2023-05-16T07:27:39;12.40;99.90
4187;DHT22;2107;52.306;10.484;2023-05-16T07:30:10;12.70;99.90
4187;DHT22;2107;52.306;10.484;2023-05-16T07:32:37;12.60;99.90
4187;DHT22;2107;52.306;10.484;2023-05-16T07:35:05;12.70;99.90
4187;DHT22;2107;52.306;10.484;2023-05-16T07:37:32;12.90;99.90
4187;DHT22;2107;52.306;10.484;2023-05-16T07:39:59;13.10;99.90
4187;DHT22;2107;52.306;10.484;2023-05-16T07:42:27;12.80;99.90
4187;DHT22;2107;52.306;10.484;2023-05-16T07:44:54;12.80;99.90
4187;DHT22;2107;52.306;10.484;2023-05-16T07:47:21;13.00;99.90
4187;DHT22;2107;52.306;10.484;2023-05-16T07:49:48;13.30;99.90
4187;DHT22;2107;52.306;10.484;2023-05-16T07:52:15;13.50;99.90
4187;DHT22;2107;52.306;10.484;2023-05-16T07:54:42;13.60;99.90
4187;DHT22;2107;52.306;10.484;2023-05-16T07:57:08;13.40;99.90
4187;DHT22;2107;52.306;10.484;2023-05-16T07:59:37;13.60;99.90
4187;DHT22;2107;52.306;10.484;2023-05-16T08:02:04;13.50;99.90
4187;DHT22;2107;52.306;10.484;2023-05-16T08:04:31;13.50;99.90
4187;DHT22;2107;52.306;10.484;2023-05-16T08:06:57;13.50;99.90
4187;DHT22;2107;52.306;10.484;2023-05-16T08:09:24;13.50;99.90
4187;DHT22;2107;52.306;10.484;2023-05-16T08:11:52;13.10;99.90
4187;DHT22;2107;52.306;10.484;2023-05-16T08:14:18;13.30;99.90
4187;DHT22;2107;52.306;10.484;2023-05-16T08:16:47;13.40;99.90
4187;DHT22;2107;52.306;10.484;2023-05-16T08:19:13;13.20;99.90
4187;DHT22;2107;52.306;10.484;2023-05-16T08:21:40;13.20;99.90
4187;DHT22;2107;52.306;10.484;2023-05-16T08:24:07;13.10;99.90
4187;DHT22;2107;52.306;10.484;2023-05-16T08:26:35;13.30;99.90
4187;DHT22;2107;52.306;10.484;2023-05-16T08:29:03;13.90;99.90
4187;DHT22;2107;52.306;10.484;2023-05-16T08:31:30;14.00;99.90
4187;DHT22;2107;52.306;10.484;2023-05-16T08:33:58;14.60;99.10
4187;DHT22;2107;52.306;10.484;2023-05-16T08:36:26;14.80;97.70
4187;DHT22;2107;52.306;10.484;2023-05-16T08:38:53;15.10;97.20
4187;DHT22;2107;52.306;10.484;2023-05-16T08:41:20;15.30;95.50
4187;DHT22;2107;52.306;10.484;2023-05-16T08:43:47;15.60;95.50
4187;DHT22;2107;52.306;10.484;2023-05-16T08:46:15;15.50;94.10
4187;DHT22;2107;52.306;10.484;2023-05-16T08:48:45;15.90;94.10
4187;DHT22;2107;52.306;10.484;2023-05-16T08:51:15;16.30;93.40
4187;DHT22;2107;52.306;10.484;2023-05-16T08:53:47;15.80;93.90
4187;DHT22;2107;52.306;10.484;2023-05-16T08:56:16;16.10;92.40
4187;DHT22;2107;52.306;10.484;2023-05-16T08:58:44;16.00;91.10
4187;DHT22;2107;52.306;10.484;2023-05-16T09:01:11;16.60;91.30
4187;DHT22;2107;52.306;10.484;2023-05-16T09:03:39;16.30;90.60
4187;DHT22;2107;52.306;10.484;2023-05-16T09:06:06;16.50;90.30
4187;DHT22;2107;52.306;10.484;2023-05-16T09:08:34;16.70;90.10
4187;DHT22;2107;52.306;10.484;2023-05-16T09:11:02;17.00;84.50
4187;DHT22;2107;52.306;10.484;2023-05-16T09:13:30;17.30;84.40
4187;DHT22;2107;52.306;10.484;2023-05-16T09:16:10;16.90;83.10
4187;DHT22;2107;52.306;10.484;2023-05-16T09:18:37;17.10;82.50
4187;DHT22;2107;52.306;10.484;2023-05-16T09:21:04;17.50;82.80
4187;DHT22;2107;52.306;10.484;2023-05-16T09:23:32;17.30;82.50
4187;DHT22;2107;52.306;10.484;2023-05-16T09:26:00;17.40;81.90
4187;DHT22;2107;52.306;10.484;2023-05-16T09:28:28;17.70;81.50
4187;DHT22;2107;52.306;10.484;2023-05-16T09:30:55;17.40;79.40
4187;DHT22;2107;52.306;10.484;2023-05-16T09:33:25;17.20;78.00
4187;DHT22;2107;52.306;10.484;2023-05-16T09:35:57;17.20;79.40
4187;DHT22;2107;52.306;10.484;2023-05-16T09:38:25;17.20;77.30
4187;DHT22;2107;52.306;10.484;2023-05-16T09:40:52;17.80;77.80
4187;DHT22;2107;52.306;10.484;2023-05-16T09:43:23;18.10;76.20
4187;DHT22;2107;52.306;10.484;2023-05-16T09:45:50;19.00;76.10
4187;DHT22;2107;52.306;10.484;2023-05-16T09:48:18;18.60;73.40
4187;DHT22;2107;52.306;10.484;2023-05-16T09:50:48;18.10;72.70
4187;DHT22;2107;52.306;10.484;2023-05-16T09:53:17;18.10;74.10
4187;DHT22;2107;52.306;10.484;2023-05-16T09:55:43;18.30;71.20
4187;DHT22;2107;52.306;10.484;2023-05-16T09:58:10;18.80;69.50
4187;DHT22;2107;52.306;10.484;2023-05-16T10:00:40;19.60;71.00
4187;DHT22;2107;52.306;10.484;2023-05-16T10:03:07;19.40;67.50
4187;DHT22;2107;52.306;10.484;2023-05-16T10:05:35;19.10;66.70
4187;DHT22;2107;52.306;10.484;2023-05-16T10:08:03;19.60;65.20
4187;DHT22;2107;52.306;10.484;2023-05-16T10:10:34;18.60;63.30
4187;DHT22;2107;52.306;10.484;2023-05-16T10:13:04;19.00;64.90
4187;DHT22;2107;52.306;10.484;2023-05-16T10:15:33;19.00;60.80
4187;DHT22;2107;52.306;10.484;2023-05-16T10:18:04;18.90;59.40
4187;DHT22;2107;52.306;10.484;2023-05-16T10:20:37;18.60;59.70
4187;DHT22;2107;52.306;10.484;2023-05-16T10:23:05;18.80;62.10
4187;DHT22;2107;52.306;10.484;2023-05-16T10:25:35;18.80;64.10
4187;DHT22;2107;52.306;10.484;2023-05-16T10:28:03;19.20;62.70
4187;DHT22;2107;52.306;10.484;2023-05-16T10:30:32;19.00;59.60
4187;DHT22;2107;52.306;10.484;2023-05-16T10:33:00;18.40;61.20
4187;DHT22;2107;52.306;10.484;2023-05-16T10:35:29;18.50;63.30
4187;DHT22;2107;52.306;10.484;2023-05-16T10:37:57;18.70;58.70
4187;DHT22;2107;52.306;10.484;2023-05-16T10:40:25;18.70;57.40
4187;DHT22;2107;52.306;10.484;2023-05-16T10:42:56;19.00;59.10
4187;DHT22;2107;52.306;10.484;2023-05-16T10:45:23;18.90;58.40
4187;DHT22;2107;52.306;10.484;2023-05-16T10:47:51;19.60;59.40
4187;DHT22;2107;52.306;10.484;2023-05-16T10:50:34;19.80;58.20
4187;DHT22;2107;52.306;10.484;2023-05-16T10:53:18;20.00;58.20
4187;DHT22;2107;52.306;10.484;2023-05-16T10:56:07;20.00;60.70
4187;DHT22;2107;52.306;10.484;2023-05-16T10:58:42;20.20;57.20
4187;DHT22;2107;52.306;10.484;2023-05-16T11:01:22;19.80;54.60
4187;DHT22;2107;52.306;10.484;2023-05-16T11:04:00;19.70;53.70
4187;DHT22;2107;52.306;10.484;2023-05-16T11:06:29;19.80;53.00
4187;DHT22;2107;52.306;10.484;2023-05-16T11:09:03;20.30;53.80
4187;DHT22;2107;52.306;10.484;2023-05-16T11:11:43;19.80;52.70
4187;DHT22;2107;52.306;10.484;2023-05-16T11:14:19;19.80;51.60
4187;DHT22;2107;52.306;10.484;2023-05-16T11:16:48;19.70;52.10
4187;DHT22;2107;52.306;10.484;2023-05-16T11:19:29;20.10;53.20
4187;DHT22;2107;52.306;10.484;2023-05-16T11:22:21;19.90;51.50
4187;DHT22;2107;52.306;10.484;2023-05-16T11:24:50;20.50;51.80
4187;DHT22;2107;52.306;10.484;2023-05-16T11:27:21;20.20;51.80
4187;DHT22;2107;52.306;10.484;2023-05-16T11:29:49;20.10;52.20
4187;DHT22;2107;52.306;10.484;2023-05-16T11:32:19;19.50;51.90
4187;DHT22;2107;52.306;10.484;2023-05-16T11:34:47;19.30;53.60
4187;DHT22;2107;52.306;10.484;2023-05-16T11:37:17;19.20;53.60
4187;DHT22;2107;52.306;10.484;2023-05-16T11:39:44;19.20;54.10
4187;DHT22;2107;52.306;10.484;2023-05-16T11:42:11;19.20;52.30
4187;DHT22;2107;52.306;10.484;2023-05-16T11:44:39;18.80;53.10
4187;DHT22;2107;52.306;10.484;2023-05-16T11:47:06;18.70;54.00
4187;DHT22;2107;52.306;10.484;2023-05-16T11:49:33;18.00;54.10
4187;DHT22;2107;52.306;10.484;2023-05-16T11:52:01;17.60;55.30
4187;DHT22;2107;52.306;10.484;2023-05-16T11:54:29;17.50;57.00
4187;DHT22;2107;52.306;10.484;2023-05-16T11:56:57;17.80;58.60
4187;DHT22;2107;52.306;10.484;2023-05-16T11:59:24;18.40;58.00
4187;DHT22;2107;52.306;10.484;2023-05-16T12:01:51;18.70;55.20
4187;DHT22;2107;52.306;10.484;2023-05-16T12:04:18;19.30;56.50
4187;DHT22;2107;52.306;10.484;2023-05-16T12:06:57;19.70;54.80
4187;DHT22;2107;52.306;10.484;2023-05-16T12:09:24;20.20;53.70
4187;DHT22;2107;52.306;10.484;2023-05-16T12:11:52;20.00;53.10
4187;DHT22;2107;52.306;10.484;2023-05-16T12:14:19;20.00;50.90
4187;DHT22;2107;52.306;10.484;2023-05-16T12:16:47;19.60;50.90
4187;DHT22;2107;52.306;10.484;2023-05-16T12:19:14;19.00;49.00
4187;DHT22;2107;52.306;10.484;2023-05-16T12:21:41;18.70;50.30
4187;DHT22;2107;52.306;10.484;2023-05-16T12:24:09;18.50;50.80
4187;DHT22;2107;52.306;10.484;2023-05-16T12:26:38;18.20;52.90
4187;DHT22;2107;52.306;10.484;2023-05-16T12:29:07;18.20;52.70
4187;DHT22;2107;52.306;10.484;2023-05-16T12:31:37;18.20;53.10
4187;DHT22;2107;52.306;10.484;2023-05-16T12:34:04;18.80;55.00
4187;DHT22;2107;52.306;10.484;2023-05-16T12:36:32;19.40;54.90
4187;DHT22;2107;52.306;10.484;2023-05-16T12:38:59;19.20;54.40
4187;DHT22;2107;52.306;10.484;2023-05-16T12:41:29;18.80;52.70
4187;DHT22;2107;52.306;10.484;2023-05-16T12:44:10;18.30;52.60
4187;DHT22;2107;52.306;10.484;2023-05-16T12:46:40;18.00;52.10
4187;DHT22;2107;52.306;10.484;2023-05-16T12:49:07;17.70;53.90
4187;DHT22;2107;52.306;10.484;2023-05-16T12:51:34;17.70;53.60
4187;DHT22;2107;52.306;10.484;2023-05-16T12:54:07;18.70;55.40
4187;DHT22;2107;52.306;10.484;2023-05-16T12:56:34;19.00;51.60
4187;DHT22;2107;52.306;10.484;2023-05-16T12:59:01;19.80;52.00
4187;DHT22;2107;52.306;10.484;2023-05-16T13:01:29;20.70;49.70
4187;DHT22;2107;52.306;10.484;2023-05-16T13:03:56;21.20;50.00
4187;DHT22;2107;52.306;10.484;2023-05-16T13:06:23;21.30;50.00
4187;DHT22;2107;52.306;10.484;2023-05-16T13:08:51;20.70;48.70
4187;DHT22;2107;52.306;10.484;2023-05-16T13:11:18;21.20;49.40
4187;DHT22;2107;52.306;10.484;2023-05-16T13:13:45;23.20;49.50
4187;DHT22;2107;52.306;10.484;2023-05-16T13:16:12;25.00;47.40
4187;DHT22;2107;52.306;10.484;2023-05-16T13:18:40;25.30;45.20
4187;DHT22;2107;52.306;10.484;2023-05-16T13:21:07;25.70;42.80
4187;DHT22;2107;52.306;10.484;2023-05-16T13:23:34;25.80;42.50
4187;DHT22;2107;52.306;10.484;2023-05-16T13:26:01;26.00;41.10
4187;DHT22;2107;52.306;10.484;2023-05-16T13:28:28;25.30;39.90
4187;DHT22;2107;52.306;10.484;2023-05-16T13:30:55;24.40;38.20
4187;DHT22;2107;52.306;10.484;2023-05-16T13:33:21;22.40;39.00
4187;DHT22;2107;52.306;10.484;2023-05-16T13:35:50;21.50;40.70
4187;DHT22;2107;52.306;10.484;2023-05-16T13:38:17;21.70;42.90
4187;DHT22;2107;52.306;10.484;2023-05-16T13:40:44;23.10;43.80
4187;DHT22;2107;52.306;10.484;2023-05-16T13:43:11;24.30;43.40
4187;DHT22;2107;52.306;10.484;2023-05-16T13:45:40;24.30;41.90
4187;DHT22;2107;52.306;10.484;2023-05-16T13:48:06;24.40;42.30
4187;DHT22;2107;52.306;10.484;2023-05-16T13:50:33;24.90;42.90
4187;DHT22;2107;52.306;10.484;2023-05-16T13:53:01;26.40;41.20
4187;DHT22;2107;52.306;10.484;2023-05-16T13:55:28;26.00;38.90
4187;DHT22;2107;52.306;10.484;2023-05-16T13:57:55;24.80;38.20
4187;DHT22;2107;52.306;10.484;2023-05-16T14:00:23;22.10;40.20
4187;DHT22;2107;52.306;10.484;2023-05-16T14:02:51;20.40;42.60
4187;DHT22;2107;52.306;10.484;2023-05-16T14:05:18;22.20;41.90
4187;DHT22;2107;52.306;10.484;2023-05-16T14:07:45;23.50;40.60
4187;DHT22;2107;52.306;10.484;2023-05-16T14:10:13;24.50;40.00
4187;DHT22;2107;52.306;10.484;2023-05-16T14:12:40;25.10;38.40
4187;DHT22;2107;52.306;10.484;2023-05-16T14:15:08;24.70;36.50
4187;DHT22;2107;52.306;10.484;2023-05-16T14:17:35;25.20;37.10
4187;DHT22;2107;52.306;10.484;2023-05-16T14:20:02;25.70;34.60
4187;DHT22;2107;52.306;10.484;2023-05-16T14:22:33;23.60;36.30
4187;DHT22;2107;52.306;10.484;2023-05-16T14:25:00;21.50;38.00
4187;DHT22;2107;52.306;10.484;2023-05-16T14:27:28;20.20;39.60
4187;DHT22;2107;52.306;10.484;2023-05-16T14:29:55;22.00;39.40
4187;DHT22;2107;52.306;10.484;2023-05-16T14:32:23;23.60;37.30
4187;DHT22;2107;52.306;10.484;2023-05-16T14:34:50;23.40;37.20
4187;DHT22;2107;52.306;10.484;2023-05-16T14:37:16;23.30;36.20
4187;DHT22;2107;52.306;10.484;2023-05-16T14:39:46;23.00;36.80
4187;DHT22;2107;52.306;10.484;2023-05-16T14:42:15;23.70;39.40
4187;DHT22;2107;52.306;10.484;2023-05-16T14:44:43;24.10;36.90
4187;DHT22;2107;52.306;10.484;2023-05-16T14:47:10;25.70;36.90
4187;DHT22;2107;52.306;10.484;2023-05-16T14:49:37;25.40;36.30
4187;DHT22;2107;52.306;10.484;2023-05-16T14:52:05;26.20;36.20
4187;DHT22;2107;52.306;10.484;2023-05-16T14:54:32;25.00;35.70
4187;DHT22;2107;52.306;10.484;2023-05-16T14:56:58;23.60;34.60
4187;DHT22;2107;52.306;10.484;2023-05-16T14:59:26;21.70;37.70
4187;DHT22;2107;52.306;10.484;2023-05-16T15:01:54;21.10;37.00
4187;DHT22;2107;52.306;10.484;2023-05-16T15:04:21;22.10;37.20
4187;DHT22;2107;52.306;10.484;2023-05-16T15:06:51;23.50;37.00
4187;DHT22;2107;52.306;10.484;2023-05-16T15:09:26;24.60;36.70
4187;DHT22;2107;52.306;10.484;2023-05-16T15:11:53;26.00;36.10
4187;DHT22;2107;52.306;10.484;2023-05-16T15:14:20;23.90;34.10
4187;DHT22;2107;52.306;10.484;2023-05-16T15:16:47;21.40;36.10
4187;DHT22;2107;52.306;10.484;2023-05-16T15:19:15;20.50;39.30
4187;DHT22;2107;52.306;10.484;2023-05-16T15:21:42;19.10;40.80
4187;DHT22;2107;52.306;10.484;2023-05-16T15:24:09;18.00;41.80
4187;DHT22;2107;52.306;10.484;2023-05-16T15:26:37;19.00;42.20
4187;DHT22;2107;52.306;10.484;2023-05-16T15:29:04;20.10;40.80
4187;DHT22;2107;52.306;10.484;2023-05-16T15:31:31;19.40;37.80
4187;DHT22;2107;52.306;10.484;2023-05-16T15:33:58;20.60;38.60
4187;DHT22;2107;52.306;10.484;2023-05-16T15:36:26;21.50;36.80
4187;DHT22;2107;52.306;10.484;2023-05-16T15:38:53;22.30;36.70
4187;DHT22;2107;52.306;10.484;2023-05-16T15:41:20;23.20;36.20
4187;DHT22;2107;52.306;10.484;2023-05-16T15:43:47;23.90;36.90
4187;DHT22;2107;52.306;10.484;2023-05-16T15:46:15;22.90;36.60
4187;DHT22;2107;52.306;10.484;2023-05-16T15:48:42;22.20;37.20
4187;DHT22;2107;52.306;10.484;2023-05-16T15:51:10;21.00;36.70
4187;DHT22;2107;52.306;10.484;2023-05-16T15:53:38;22.20;36.10
4187;DHT22;2107;52.306;10.484;2023-05-16T15:56:06;21.90;36.00